Strona główna
METAR-TAF:

METAR-TAF

Lotnisko :

Port lotniczy Bahrajn

Bahrajn, Bahrajn

Szerokość geograficzna: 26-16N, Długość geograficzna: 050-39E, wysokość: 2 m

Aktualna obserwacja pogody

Raport powstał 6 minut temu, godzina 18:30 UTC
Wiatr 9 kt od zachodnio-północny zachód
Temperatura 34°C
Wilgotność 53%
Ciśnienie 999 hPa
Widzialność 10 km lub więcej
Brak chmur poniżej 1500 m i brak chmur cumulonimbus

METAR: OBBI 171830Z 30009KT CAVOK 34/23 Q0999 NOSIG

czas: 21:36 (18:36 UTC)

Prognoza

Raport powstał 1 godzina i 36 minut temu, godzina 17:00 UTC
Prognoza ważna od 17 godzina 18 UTC do 19 godzina 00 UTC
Wiatr 12 kt od północny zachód
Widzialność 10 km lub więcej
Brak chmur poniżej 1500 m i brak chmur cumulonimbus
Stopniowe zmiany
od 18 godzina 16 UTC do 18 godzina 18 UTC
Wiatr 5 kt z kierunków zmiennych

TAF: OBBI 171700Z 1718/1900 32012KT CAVOK BECMG 1816/1818 VRB05KT

Obserwacja i prognoza pogody dla ponad 4000 lotnisk (raport METAR i TAF).

Dostępne stacje oznaczono żółtymi i czerwonymi punktami na mapie.

Najedź kursorem aby zobaczyć nazwę stacji.

Kliknij aby zobaczyć obserwacje i prognozy pogody.

Aby zmienić mapę: kliknij na zielony przycisk z czarnym krzyżykiem, aby powiększyć; na zielony przycisk z myślnikiem, aby pomniejszyć; na zielone strzałki, aby przejść do map sąsiednich.


METAR-TAF: